WetterOnline ( https://www.wetteronline.de )

Wetter aktuell Darß/Zingst

Aktuelles Wetter: Barth (7m)

6-stündlich | Neueste Meldungen
Ortszeit Temperatur Wetter
Mo, 25.01. 13:00 2.8° C bedeckt
Mo, 25.01. 7:00 0.5° C bewölkt
Mo, 25.01. 1:00 0.7° C bedeckt
So, 24.01. 19:00 0.9° C Sprühregen
So, 24.01. 13:00 1.7° C Sprühregen
So, 24.01. 7:00 0.3° C bedeckt
So, 24.01. 1:00 -0.3° C bedeckt
Sa, 23.01. 19:00 -2.3° C bewölkt
Ortszeit Temperatur Wetter
Mo, 25.01. 14:30 2.7° C bedeckt
Mo, 25.01. 14:20 2.7° C bedeckt
Mo, 25.01. 14:10 3.0° C bedeckt
Mo, 25.01. 14:00 3.4° C bedeckt
Mo, 25.01. 13:50 3.4° C bedeckt
Mo, 25.01. 13:40 2.8° C bedeckt
Mo, 25.01. 13:30 2.8° C bedeckt
Mo, 25.01. 13:00 2.8° C bedeckt
Mo, 25.01. 12:30 2.5° C bedeckt
Mo, 25.01. 12:00 2.2° C bedeckt
Mo, 25.01. 11:30 1.9° C bedeckt
Ortszeit Relative Feuchte Sichtweite
Mo, 25.01. 13:00 92% 35 km
Mo, 25.01. 7:00 97% 2.5 km
Mo, 25.01. 1:00 97% 3.8 km
So, 24.01. 19:00 96% 8 km
So, 24.01. 13:00 92% 7 km
So, 24.01. 7:00 96% 5.0 km
So, 24.01. 1:00 98% 4.3 km
Sa, 23.01. 19:00 97% 3.1 km
Ortszeit Relative Feuchte Sichtweite
Mo, 25.01. 14:30 84% >70 km
Mo, 25.01. 14:20 84% -
Mo, 25.01. 14:10 82% -
Mo, 25.01. 14:00 84% -
Mo, 25.01. 13:50 84% -
Mo, 25.01. 13:40 87% -
Mo, 25.01. 13:30 86% 65 km
Mo, 25.01. 13:00 92% 35 km
Mo, 25.01. 12:30 94% 24 km
Mo, 25.01. 12:00 94% 11 km
Mo, 25.01. 11:30 94% 10 km
Ortszeit Niederschlagsmenge Niederschlagsart
Mo, 25.01. 13:00 0.1 l/m2 in 6 Std. Sprühregen
Mo, 25.01. 7:00 0.1 l/m2 in 12 Std. Schnee, Regen
Mo, 25.01. 1:00 0.1 l/m2 in 6 Std. Schnee, Regen
So, 24.01. 19:00 3 l/m2 in 12 Std. Schnee, Regen
So, 24.01. 13:00 0.1 l/m2 in 6 Std. Regen
So, 24.01. 7:00 0.0 l/m2 in 12 Std. -
So, 24.01. 1:00 0.0 l/m2 in 6 Std. -
Sa, 23.01. 19:00 0.0 l/m2 in 12 Std. -
Ortszeit Niederschlagsmenge Niederschlagsart
Mo, 25.01. 14:30 0.0 l/m2 in 1 Std. -
Mo, 25.01. 14:20 keine Meldung -
Mo, 25.01. 14:10 keine Meldung -
Mo, 25.01. 14:00 0.1 l/m2 in 1 Std. Sprühregen
Mo, 25.01. 13:50 keine Meldung -
Mo, 25.01. 13:40 keine Meldung -
Mo, 25.01. 13:30 0.0 l/m2 in 1 Std. -
Mo, 25.01. 13:00 0.1 l/m2 in 1 Std. Sprühregen
Mo, 25.01. 12:30 0.1 l/m2 in 1 Std. Schnee
Mo, 25.01. 12:00 0.1 l/m2 in 1 Std. Sprühregen
Mo, 25.01. 11:30 0.1 l/m2 in 1 Std. Schnee
Ortszeit Stärke Spitze Richtung
km/h Bft. km/h Grad Sektor
Mo, 25.01. 13:00 13 3 24 250° W
Mo, 25.01. 7:00 9 2 19 210° SW
Mo, 25.01. 1:00 11 2 18 220° SW
So, 24.01. 19:00 7 2 14 260° W
So, 24.01. 13:00 11 2 14 200° S
So, 24.01. 7:00 7 2 14 140° SO
So, 24.01. 1:00 4 1 11 170° S
Sa, 23.01. 19:00 6 1 9 180° S
Ortszeit Stärke Spitze Richtung
km/h Bft. km/h Grad Sektor
Mo, 25.01. 14:30 17 3 26 250° W
Mo, 25.01. 14:20 17 3 - 250° W
Mo, 25.01. 14:10 17 3 - 250° W
Mo, 25.01. 14:00 17 3 26 250° W
Mo, 25.01. 13:50 17 3 - 250° W
Mo, 25.01. 13:40 15 3 - 260° W
Mo, 25.01. 13:30 14 3 25 270° W
Mo, 25.01. 13:00 13 3 24 250° W
Mo, 25.01. 12:30 11 2 18 230° SW
Mo, 25.01. 12:00 11 2 14 230° SW
Mo, 25.01. 11:30 11 2 14 230° SW
Ortszeit Untergrenze Bedeckung Gattung
total tief tief mittel hoch
Mo, 25.01. 13:00 240 m 8/8 8/8 - - -
Mo, 25.01. 7:00 120 m 7/8 7/8 - - -
Mo, 25.01. 1:00 90 m 8/8 8/8 - - -
So, 24.01. 19:00 150 m 8/8 8/8 - - -
So, 24.01. 13:00 540 m 5/8 5/8 - - -
So, 24.01. 7:00 1290 m 8/8 8/8 - - -
So, 24.01. 1:00 1050 m 8/8 8/8 - - -
Sa, 23.01. 19:00 6000 m 8/8 6/8 - - -
Ortszeit Bedeckungsgrad in Achtel und Wolkenuntergrenze
Mo, 25.01. 14:30 1(330m) 7(540m) 8(1230m)
Mo, 25.01. 14:20 1(330m) 7(540m) 8(1230m)
Mo, 25.01. 14:10 1(330m) 7(540m) 8(1170m)
Mo, 25.01. 14:00 3(330m) 6(540m) 8(1140m)
Mo, 25.01. 13:50 3(330m) 6(540m) 8(1140m)
Mo, 25.01. 13:40 3(330m) 7(510m) 8(1140m)
Mo, 25.01. 13:30 2(270m) 7(510m) 8(1140m)
Mo, 25.01. 13:00 6(240m) 8(420m) 8(1080m)
Mo, 25.01. 12:30 7(210m) 7(480m) 8(1200m)
Mo, 25.01. 12:00 7(210m) 8(540m) 8(1170m)
Mo, 25.01. 11:30 7(180m) 7(480m) 8(1350m)
Ortszeit Luftdruck NN (hPa) Tendenz (hPa in 3 Std.)
Mo, 25.01. 13:00 1001 + 1,4
Mo, 25.01. 7:00 998 + 0,5
Mo, 25.01. 1:00 998 0,0
So, 24.01. 19:00 998 + 0,1
So, 24.01. 13:00 997 + 0,5
So, 24.01. 7:00 996 0,0
So, 24.01. 1:00 995 - 0,1
Sa, 23.01. 19:00 995 - 0,3
Ortszeit Luftdruck NN (hPa) Tendenz (hPa in 3 Std.)
Mo, 25.01. 14:30 1002 + 0,9
Mo, 25.01. 14:20 1002 keine Meldung
Mo, 25.01. 14:10 1002 keine Meldung
Mo, 25.01. 14:00 1001 + 1,0
Mo, 25.01. 13:50 1001 keine Meldung
Mo, 25.01. 13:40 1001 keine Meldung
Mo, 25.01. 13:30 1002 + 1,3
Mo, 25.01. 13:00 1001 + 1,4
Mo, 25.01. 12:30 1001 + 1,4
Mo, 25.01. 12:00 1001 + 1,6
Mo, 25.01. 11:30 1001 + 1,7
Ortszeit Schneehöhe (cm)
Mo, 25.01. 13:00 0
Mo, 25.01. 7:00 0
Mo, 25.01. 1:00 0
So, 24.01. 19:00 0
So, 24.01. 13:00 0
So, 24.01. 7:00 0
So, 24.01. 1:00 0
Sa, 23.01. 19:00 0
Ortszeit Schneehöhe (cm)
Mo, 25.01. 14:30 0
Mo, 25.01. 14:20 0
Mo, 25.01. 14:10 0
Mo, 25.01. 14:00 0
Mo, 25.01. 13:50 0
Mo, 25.01. 13:40 0
Mo, 25.01. 13:30 0
Mo, 25.01. 13:00 0
Mo, 25.01. 12:30 0
Mo, 25.01. 12:00 0
Mo, 25.01. 11:30 0
Link zu dieser Seite / Seite empfehlen

Das Wetter in ...